createdAt,value
2019-06-01T00:01:52.240Z,2.00
2019-06-01T00:04:22.554Z,2.15
2019-06-01T00:06:52.574Z,2.12
2019-06-01T00:09:22.610Z,1.82
2019-06-01T00:11:52.641Z,1.70
2019-06-01T00:14:22.677Z,2.02
2019-06-01T00:16:52.706Z,1.67
2019-06-01T00:19:22.739Z,2.08
2019-06-01T00:21:54.230Z,1.90
2019-06-01T00:24:24.467Z,1.60
2019-06-01T00:26:54.497Z,1.47
2019-06-01T00:29:24.599Z,1.57
2019-06-01T00:31:54.697Z,1.60
2019-06-01T00:34:24.730Z,1.57
2019-06-01T00:36:55.227Z,2.10
2019-06-01T00:39:25.249Z,2.00
2019-06-01T00:41:55.655Z,1.75
2019-06-01T00:44:25.681Z,2.35
2019-06-01T00:46:55.710Z,2.22
2019-06-01T00:49:25.739Z,2.40
2019-06-01T00:51:57.070Z,2.02
2019-06-01T00:54:27.098Z,2.30
2019-06-01T00:56:57.124Z,2.12
2019-06-01T00:59:27.533Z,2.05
2019-06-01T01:01:57.960Z,2.10
2019-06-01T01:04:27.999Z,1.90
2019-06-01T01:06:58.407Z,2.00
2019-06-01T01:09:28.503Z,1.77
2019-06-01T01:11:58.951Z,2.37
2019-06-01T01:14:28.980Z,1.87
2019-06-01T01:16:59.394Z,1.95
2019-06-01T01:19:29.424Z,2.10
2019-06-01T01:21:59.456Z,2.33
2019-06-01T01:24:29.476Z,1.92
2019-06-01T01:26:59.580Z,2.17
2019-06-01T01:29:29.615Z,1.90
2019-06-01T01:32:00.010Z,2.05
2019-06-01T01:34:30.029Z,2.27
2019-06-01T01:37:01.173Z,1.92
2019-06-01T01:39:31.643Z,2.20
2019-06-01T01:42:01.972Z,1.98
2019-06-01T01:44:31.999Z,2.20
2019-06-01T01:47:02.099Z,1.92
2019-06-01T01:49:32.434Z,2.00
2019-06-01T01:52:02.473Z,1.80
2019-06-01T01:54:32.491Z,1.40
2019-06-01T01:57:03.603Z,1.85
2019-06-01T01:59:33.635Z,1.95
2019-06-01T02:02:04.109Z,2.10
2019-06-01T02:04:34.154Z,1.98
2019-06-01T02:07:04.263Z,1.98
2019-06-01T02:09:34.431Z,1.90
2019-06-01T02:12:05.100Z,1.60
2019-06-01T02:14:35.133Z,2.00
2019-06-01T02:17:05.307Z,1.85
2019-06-01T02:19:36.599Z,1.80
2019-06-01T02:22:07.422Z,2.00
2019-06-01T02:24:37.451Z,3.20
2019-06-01T02:27:07.479Z,1.87
2019-06-01T02:29:37.879Z,2.10
2019-06-01T02:32:07.981Z,1.80
2019-06-01T02:34:38.423Z,1.90
2019-06-01T02:37:08.519Z,2.25
2019-06-01T02:39:38.845Z,1.57
2019-06-01T02:42:10.414Z,2.00
2019-06-01T02:44:40.523Z,2.20
2019-06-01T02:47:10.971Z,2.20
2019-06-01T02:49:41.003Z,1.67
2019-06-01T02:52:11.025Z,1.80
2019-06-01T02:54:41.133Z,2.33
2019-06-01T02:57:11.546Z,2.00
2019-06-01T02:59:41.974Z,2.52
2019-06-01T03:02:15.038Z,2.35
2019-06-01T03:04:45.206Z,2.60
2019-06-01T03:07:15.781Z,2.92
2019-06-01T03:09:46.956Z,2.37
2019-06-01T03:12:19.667Z,2.50
2019-06-01T03:14:51.297Z,2.60
2019-06-01T03:17:24.333Z,2.37
2019-06-01T03:19:57.179Z,2.55
2019-06-01T03:22:28.533Z,2.62
2019-06-01T03:25:00.400Z,2.87
2019-06-01T03:27:33.053Z,2.55
2019-06-01T03:30:09.830Z,4.83
2019-06-01T03:32:38.652Z,2.58
2019-06-01T03:35:08.954Z,2.85
2019-06-01T03:37:39.369Z,2.83
2019-06-01T03:40:19.852Z,2.83
2019-06-01T03:42:41.579Z,3.30
2019-06-01T03:45:12.983Z,3.77
2019-06-01T03:47:43.697Z,2.90
2019-06-01T03:50:13.974Z,3.50
2019-06-01T03:52:43.999Z,3.17
2019-06-01T03:55:14.102Z,3.80
2019-06-01T03:57:44.131Z,3.47
2019-06-01T04:00:14.650Z,3.37
2019-06-01T04:02:44.741Z,3.20
2019-06-01T04:05:14.915Z,3.00
2019-06-01T04:07:44.934Z,3.42
2019-06-01T04:10:15.033Z,3.75
2019-06-01T04:12:45.060Z,3.98
2019-06-01T04:15:16.834Z,4.08
2019-06-01T04:17:47.128Z,3.42
2019-06-01T04:20:17.299Z,4.15
2019-06-01T04:22:47.672Z,3.42
2019-06-01T04:25:17.706Z,3.62
2019-06-01T04:27:48.109Z,3.58
2019-06-01T04:30:21.610Z,3.95
2019-06-01T04:35:20.724Z,3.75
2019-06-01T04:37:50.896Z,3.92
2019-06-01T04:40:21.293Z,4.08
2019-06-01T04:42:51.319Z,4.20
2019-06-01T04:45:21.345Z,3.95
2019-06-01T04:47:51.380Z,4.50
2019-06-01T04:50:21.678Z,3.90
2019-06-01T04:52:52.094Z,4.45
2019-06-01T04:55:22.464Z,5.30
2019-06-01T04:57:52.493Z,4.60
2019-06-01T05:00:27.730Z,3.85
2019-06-01T05:03:04.943Z,4.17
2019-06-01T05:05:26.270Z,4.60
2019-06-01T05:07:56.582Z,4.37
2019-06-01T05:10:26.613Z,4.20
2019-06-01T05:12:56.669Z,4.53
2019-06-01T05:15:26.835Z,4.08
2019-06-01T05:17:57.271Z,4.62
2019-06-01T05:20:27.293Z,4.37
2019-06-01T05:22:57.407Z,4.50
2019-06-01T05:25:27.511Z,4.53
2019-06-01T05:27:57.995Z,4.75
2019-06-01T05:30:28.163Z,3.65
2019-06-01T05:32:58.214Z,4.50
2019-06-01T05:35:28.245Z,4.10
2019-06-01T05:37:58.638Z,4.17
2019-06-01T05:40:28.666Z,3.87
2019-06-01T05:42:58.702Z,4.22
2019-06-01T05:45:29.093Z,4.00
2019-06-01T05:47:59.131Z,3.62
2019-06-01T05:50:29.543Z,4.08
2019-06-01T05:52:59.567Z,3.72
2019-06-01T05:55:29.604Z,4.50
2019-06-01T05:58:00.025Z,4.30
2019-06-01T06:00:41.578Z,3.90
2019-06-01T06:03:15.118Z,3.85
2019-06-01T06:05:43.819Z,3.95
2019-06-01T06:08:14.491Z,4.35
2019-06-01T06:10:45.051Z,4.25
2019-06-01T06:13:15.389Z,4.40
2019-06-01T06:15:45.504Z,3.80
2019-06-01T06:18:15.798Z,3.67
2019-06-01T06:20:46.236Z,3.65
2019-06-01T06:23:16.496Z,3.47
2019-06-01T06:25:46.611Z,4.33
2019-06-01T06:28:16.739Z,3.83
2019-06-01T06:30:46.772Z,4.50
2019-06-01T06:33:17.380Z,4.22
2019-06-01T06:35:47.497Z,3.80
2019-06-01T06:38:17.824Z,4.10
2019-06-01T06:40:47.994Z,4.40
2019-06-01T06:43:24.451Z,5.15
2019-06-01T06:45:50.101Z,4.90
2019-06-01T06:48:21.280Z,3.92
2019-06-01T06:50:52.440Z,4.17
2019-06-01T06:53:32.386Z,4.17
2019-06-01T06:55:55.792Z,3.70
2019-06-01T06:58:26.506Z,4.65
2019-06-01T07:00:57.059Z,4.62
2019-06-01T07:03:27.256Z,4.87
2019-06-01T07:05:57.293Z,4.17
2019-06-01T07:08:28.047Z,4.65
2019-06-01T07:10:58.292Z,5.20
2019-06-01T07:13:28.477Z,4.95
2019-06-01T07:15:58.506Z,5.25
2019-06-01T07:18:28.542Z,5.33
2019-06-01T07:20:59.977Z,5.50
2019-06-01T07:23:30.009Z,5.62
2019-06-01T07:26:00.031Z,5.92
2019-06-01T07:28:30.073Z,5.25
2019-06-01T07:31:00.442Z,5.45
2019-06-01T07:33:30.478Z,6.33
2019-06-01T07:36:01.897Z,6.22
2019-06-01T07:38:33.168Z,5.00
2019-06-01T07:41:03.381Z,5.80
2019-06-01T07:43:33.411Z,5.08
2019-06-01T07:46:03.502Z,4.97
2019-06-01T07:48:33.556Z,4.12
2019-06-01T07:51:03.570Z,4.15
2019-06-01T07:53:33.798Z,4.03
2019-06-01T07:56:03.902Z,3.77
2019-06-01T07:58:34.007Z,2.90
2019-06-01T08:01:04.102Z,2.67
2019-06-01T08:03:35.080Z,3.37
2019-06-01T08:06:05.432Z,2.80
2019-06-01T08:08:35.862Z,3.25
2019-06-01T08:11:05.977Z,3.83
2019-06-01T08:13:36.047Z,3.05
2019-06-01T08:16:06.481Z,2.90
2019-06-01T08:18:36.583Z,5.08
2019-06-01T08:21:06.689Z,3.80
2019-06-01T08:23:36.715Z,3.58
2019-06-01T08:26:07.140Z,3.70
2019-06-01T08:28:37.183Z,3.98
2019-06-01T08:31:07.366Z,3.90
2019-06-01T08:33:38.461Z,3.58
2019-06-01T08:36:08.566Z,4.50
2019-06-01T08:38:38.601Z,3.50
2019-06-01T08:41:09.017Z,5.08
2019-06-01T08:43:39.569Z,5.87
2019-06-01T08:46:09.723Z,5.22
2019-06-01T08:48:40.098Z,6.65
2019-06-01T08:51:11.538Z,6.72
2019-06-01T08:53:41.569Z,6.08
2019-06-01T08:56:11.602Z,6.10
2019-06-01T08:58:41.634Z,7.95
2019-06-01T09:01:11.748Z,8.58
2019-06-01T09:03:46.229Z,9.28
2019-06-01T09:06:13.795Z,7.58
2019-06-01T09:08:43.894Z,5.90
2019-06-01T09:11:14.323Z,7.40
2019-06-01T09:13:44.359Z,7.72
2019-06-01T09:16:14.997Z,6.65
2019-06-01T09:18:45.024Z,5.25
2019-06-01T09:21:15.060Z,5.90
2019-06-01T09:23:45.445Z,5.60
2019-06-01T09:26:15.485Z,6.85
2019-06-01T09:28:45.514Z,6.50
2019-06-01T09:31:16.025Z,5.15
2019-06-01T09:33:46.439Z,4.80
2019-06-01T09:36:16.552Z,5.03
2019-06-01T09:38:46.642Z,6.20
2019-06-01T09:41:17.558Z,4.85
2019-06-01T09:43:47.770Z,6.40
2019-06-01T09:46:18.166Z,5.17
2019-06-01T09:48:48.197Z,4.37
2019-06-01T09:51:18.371Z,4.08
2019-06-01T09:53:48.408Z,5.00
2019-06-01T09:56:18.569Z,3.35
2019-06-01T09:58:48.971Z,2.70
2019-06-01T10:01:19.311Z,4.03
2019-06-01T10:03:49.334Z,2.60
2019-06-01T10:06:19.358Z,2.22
2019-06-01T10:08:50.463Z,1.80
2019-06-01T10:11:20.491Z,1.82
2019-06-01T10:13:50.522Z,1.67
2019-06-01T10:16:20.555Z,1.40
2019-06-01T10:18:50.586Z,1.57
2019-06-01T10:21:20.622Z,1.77
2019-06-01T10:23:50.652Z,1.25
2019-06-01T10:26:20.758Z,1.55
2019-06-01T10:28:51.124Z,1.85
2019-06-01T10:31:21.154Z,1.55
2019-06-01T10:33:52.010Z,1.82
2019-06-01T10:36:22.121Z,1.40
2019-06-01T10:38:52.222Z,1.42
2019-06-01T10:41:22.317Z,1.10
2019-06-01T10:43:52.661Z,1.42
2019-06-01T10:46:23.007Z,1.90
2019-06-01T10:48:53.101Z,1.98
2019-06-01T10:51:23.144Z,2.20
2019-06-01T10:53:53.312Z,2.20
2019-06-01T10:56:23.342Z,2.27
2019-06-01T10:59:00.076Z,2.37
2019-06-01T11:01:25.115Z,1.82
2019-06-01T11:03:55.158Z,2.10
2019-06-01T11:06:36.718Z,1.87
2019-06-01T11:08:56.907Z,2.25
2019-06-01T11:11:26.938Z,1.80
2019-06-01T11:13:57.039Z,1.92
2019-06-01T11:16:27.140Z,1.47
2019-06-01T11:18:57.180Z,1.20
2019-06-01T11:21:28.309Z,1.47
2019-06-01T11:23:58.349Z,1.35
2019-06-01T11:26:28.387Z,1.20
2019-06-01T11:28:58.414Z,1.20
2019-06-01T11:31:28.521Z,1.50
2019-06-01T11:33:58.961Z,1.30
2019-06-01T11:36:28.992Z,1.20
2019-06-01T11:38:59.022Z,1.50
2019-06-01T11:41:29.407Z,1.20
2019-06-01T11:43:59.447Z,1.10
2019-06-01T11:46:29.470Z,1.65
2019-06-01T11:48:59.511Z,1.85
2019-06-01T11:51:29.545Z,1.57
2019-06-01T11:53:59.579Z,1.55
2019-06-01T11:56:29.606Z,1.50
2019-06-01T11:58:59.640Z,1.40
2019-06-01T12:01:29.661Z,1.55
2019-06-01T12:03:59.764Z,1.80
2019-06-01T12:06:29.806Z,2.08
2019-06-01T12:09:00.215Z,2.92
2019-06-01T12:11:30.244Z,1.72
2019-06-01T12:14:00.267Z,2.12
2019-06-01T12:16:31.278Z,4.12
2019-06-01T12:19:01.365Z,2.55
2019-06-01T12:21:31.463Z,3.12
2019-06-01T12:24:01.500Z,3.55
2019-06-01T12:26:31.598Z,3.45
2019-06-01T12:29:01.631Z,4.20
2019-06-01T12:31:31.665Z,4.25
2019-06-01T12:34:02.023Z,4.72
2019-06-01T12:36:32.063Z,3.02
2019-06-01T12:39:03.611Z,3.65
2019-06-01T12:41:34.083Z,3.27
2019-06-01T12:44:09.255Z,3.72
2019-06-01T12:46:39.802Z,3.52
2019-06-01T12:49:10.520Z,2.92
2019-06-01T12:51:40.743Z,3.00
2019-06-01T12:54:11.280Z,4.22
2019-06-01T12:56:42.804Z,4.08
2019-06-01T12:59:13.361Z,3.17
2019-06-01T13:01:45.091Z,4.37
2019-06-01T13:04:15.304Z,4.17
2019-06-01T13:06:49.418Z,3.60
2019-06-01T13:09:17.136Z,4.03
2019-06-01T13:11:47.422Z,4.00
2019-06-01T13:14:17.629Z,3.83
2019-06-01T13:16:58.622Z,4.65
2019-06-01T13:19:19.810Z,4.20
2019-06-01T13:21:50.252Z,4.60
2019-06-01T13:24:21.497Z,4.80
2019-06-01T13:26:51.926Z,3.40
2019-06-01T13:29:22.396Z,3.02
2019-06-01T13:31:52.705Z,3.67
2019-06-01T13:34:23.131Z,2.60
2019-06-01T13:36:53.165Z,2.67
2019-06-01T13:39:23.193Z,2.75
2019-06-01T13:41:53.611Z,2.90
2019-06-01T13:44:23.629Z,3.22
2019-06-01T13:46:54.043Z,3.50
2019-06-01T13:49:24.073Z,4.08
2019-06-01T13:51:54.674Z,3.30
2019-06-01T13:54:24.831Z,4.83
2019-06-01T13:56:55.187Z,3.10
2019-06-01T13:59:25.339Z,2.72
2019-06-01T14:01:55.448Z,3.47
2019-06-01T14:04:25.587Z,3.27
2019-06-01T14:06:56.850Z,3.40
2019-06-01T14:09:27.011Z,3.22
2019-06-01T14:11:57.356Z,3.52
2019-06-01T14:14:27.815Z,3.17
2019-06-01T14:16:57.848Z,3.62
2019-06-01T14:19:28.252Z,3.70
2019-06-01T14:21:58.292Z,5.05
2019-06-01T14:24:28.696Z,4.03
2019-06-01T14:26:58.726Z,5.17
2019-06-01T14:29:28.759Z,4.08
2019-06-01T14:31:59.259Z,4.15
2019-06-01T14:34:29.288Z,4.85
2019-06-01T14:36:59.322Z,3.87
2019-06-01T14:39:29.721Z,4.25
2019-06-01T14:42:00.149Z,3.80
2019-06-01T14:44:30.265Z,4.12
2019-06-01T14:47:05.406Z,4.33
2019-06-01T14:49:31.946Z,4.37
2019-06-01T14:52:01.974Z,2.87
2019-06-01T14:54:32.008Z,3.25
2019-06-01T14:57:02.034Z,2.30
2019-06-01T14:59:32.175Z,3.33
2019-06-01T15:02:02.205Z,2.98
2019-06-01T15:04:32.230Z,3.20
2019-06-01T15:07:02.270Z,4.40
2019-06-01T15:09:33.371Z,3.60
2019-06-01T15:12:03.503Z,3.98
2019-06-01T15:14:33.508Z,4.03
2019-06-01T15:17:03.623Z,3.40
2019-06-01T15:19:33.665Z,5.12
2019-06-01T15:22:04.358Z,6.83
2019-06-01T15:24:34.455Z,5.00
2019-06-01T15:27:04.851Z,5.62
2019-06-01T15:29:34.877Z,5.47
2019-06-01T15:32:05.411Z,4.33
2019-06-01T15:34:35.440Z,4.30
2019-06-01T15:37:05.504Z,5.28
2019-06-01T15:39:35.881Z,4.28
2019-06-01T15:42:06.402Z,5.42
2019-06-01T15:44:36.731Z,4.50
2019-06-01T15:47:07.167Z,4.53
2019-06-01T15:49:37.190Z,4.72
2019-06-01T15:52:07.303Z,4.20
2019-06-01T15:54:37.331Z,4.20
2019-06-01T15:57:07.436Z,3.10
2019-06-01T15:59:37.449Z,3.92
2019-06-01T16:02:07.980Z,6.33
2019-06-01T16:04:38.091Z,5.85
2019-06-01T16:07:08.519Z,6.20
2019-06-01T16:09:42.625Z,6.08
2019-06-01T16:12:10.365Z,6.10
2019-06-01T16:14:40.480Z,5.92
2019-06-01T16:17:10.509Z,6.65
2019-06-01T16:19:40.551Z,5.85
2019-06-01T16:22:10.583Z,6.67
2019-06-01T16:24:40.617Z,6.72
2019-06-01T16:27:10.667Z,6.35
2019-06-01T16:29:40.705Z,5.92
2019-06-01T16:32:10.810Z,6.17
2019-06-01T16:34:40.841Z,5.30
2019-06-01T16:37:10.878Z,5.70
2019-06-01T16:39:40.914Z,5.80
2019-06-01T16:42:11.023Z,6.25
2019-06-01T16:44:41.546Z,6.85
2019-06-01T16:47:11.969Z,5.85
2019-06-01T16:49:42.088Z,6.72
2019-06-01T16:52:12.122Z,7.17
2019-06-01T16:54:42.173Z,7.30
2019-06-01T16:57:12.263Z,8.18
2019-06-01T16:59:42.411Z,6.97
2019-06-01T17:02:12.417Z,7.15
2019-06-01T17:04:42.449Z,6.75
2019-06-01T17:07:13.853Z,6.75
2019-06-01T17:09:43.955Z,6.70
2019-06-01T17:12:14.059Z,6.97
2019-06-01T17:14:44.099Z,7.25
2019-06-01T17:17:14.638Z,6.15
2019-06-01T17:19:45.068Z,6.83
2019-06-01T17:22:15.114Z,7.03
2019-06-01T17:24:45.218Z,7.15
2019-06-01T17:27:15.294Z,7.30
2019-06-01T17:29:45.403Z,7.12
2019-06-01T17:32:23.936Z,6.92
2019-06-01T17:34:47.945Z,6.53
2019-06-01T17:37:18.358Z,5.67
2019-06-01T17:39:48.407Z,7.33
2019-06-01T17:42:18.503Z,6.25
2019-06-01T17:44:48.630Z,5.83
2019-06-01T17:47:19.059Z,6.87
2019-06-01T17:49:49.100Z,6.10
2019-06-01T17:52:19.199Z,4.90
2019-06-01T17:54:49.297Z,5.78
2019-06-01T17:57:20.721Z,5.55
2019-06-01T17:59:50.746Z,5.55
2019-06-01T18:02:20.777Z,5.37
2019-06-01T18:04:50.884Z,6.83
2019-06-01T18:07:23.472Z,6.08
2019-06-01T18:09:52.991Z,5.03
2019-06-01T18:12:42.890Z,4.95
2019-06-01T18:15:13.365Z,4.70
2019-06-01T18:17:43.457Z,4.35
2019-06-01T18:20:13.879Z,4.40
2019-06-01T18:22:44.481Z,4.03
2019-06-01T18:25:21.243Z,4.08
2019-06-01T18:27:51.476Z,4.35
2019-06-01T18:30:22.592Z,3.62
2019-06-01T18:32:54.056Z,3.55
2019-06-01T18:35:25.622Z,4.13
2019-06-01T18:37:56.103Z,5.50
2019-06-01T18:40:27.400Z,6.62
2019-06-01T18:43:01.206Z,6.72
2019-06-01T18:45:31.551Z,5.65
2019-06-01T18:48:02.059Z,5.25
2019-06-01T18:50:33.396Z,5.22
2019-06-01T18:53:04.023Z,3.90
2019-06-01T18:55:35.753Z,4.10
2019-06-01T18:58:06.296Z,4.28
2019-06-01T19:00:39.559Z,4.08
2019-06-01T19:03:09.028Z,4.12
2019-06-01T19:05:39.229Z,4.42
2019-06-01T19:08:09.423Z,4.30
2019-06-01T19:10:39.704Z,4.00
2019-06-01T19:13:09.790Z,4.37
2019-06-01T19:15:40.238Z,3.80
2019-06-01T19:18:10.677Z,4.20
2019-06-01T19:20:40.726Z,4.65
2019-06-01T19:23:10.829Z,4.10
2019-06-01T19:25:40.904Z,3.45
2019-06-01T19:28:11.094Z,3.37
2019-06-01T19:30:42.919Z,3.58
2019-06-01T19:33:15.426Z,5.62
2019-06-01T19:35:44.886Z,5.17
2019-06-01T19:38:15.472Z,4.53
2019-06-01T19:40:45.647Z,4.28
2019-06-01T19:43:15.795Z,4.00
2019-06-01T19:45:45.987Z,4.17
2019-06-01T19:48:16.507Z,3.87
2019-06-01T19:50:47.739Z,3.70
2019-06-01T19:53:18.854Z,3.62
2019-06-01T19:55:49.081Z,3.90
2019-06-01T19:58:19.486Z,3.83
2019-06-01T20:00:49.677Z,4.30
2019-06-01T20:03:22.043Z,3.42
2019-06-01T20:05:51.458Z,3.30
2019-06-01T20:08:22.615Z,4.75
2019-06-01T20:10:52.783Z,4.03
2019-06-01T20:13:22.852Z,4.92
2019-06-01T20:15:53.094Z,5.65
2019-06-01T20:18:23.151Z,4.83
2019-06-01T20:20:54.515Z,4.72
2019-06-01T20:23:24.943Z,4.50
2019-06-01T20:25:55.367Z,4.20
2019-06-01T20:28:25.403Z,3.90
2019-06-01T20:30:55.449Z,4.60
2019-06-01T20:33:25.619Z,4.65
2019-06-01T20:35:56.045Z,5.05
2019-06-01T20:38:26.137Z,4.40
2019-06-01T20:40:56.464Z,4.10
2019-06-01T20:43:26.823Z,5.10
2019-06-01T20:45:57.108Z,4.50
2019-06-01T20:48:27.823Z,5.55
2019-06-01T20:50:57.862Z,4.40
2019-06-01T20:53:28.226Z,4.42
2019-06-01T20:55:58.251Z,5.03
2019-06-01T20:58:28.274Z,5.10
2019-06-01T21:00:58.388Z,4.75
2019-06-01T21:03:28.435Z,5.05
2019-06-01T21:05:58.859Z,5.37
2019-06-01T21:08:28.952Z,4.83
2019-06-01T21:10:58.989Z,5.53
2019-06-01T21:13:29.021Z,6.17
2019-06-01T21:15:59.075Z,5.30
2019-06-01T21:18:29.108Z,5.65
2019-06-01T21:20:59.126Z,5.58
2019-06-01T21:23:29.174Z,5.33
2019-06-01T21:25:59.187Z,7.10
2019-06-01T21:28:29.596Z,6.72
2019-06-01T21:30:59.624Z,5.87
2019-06-01T21:33:29.655Z,5.40
2019-06-01T21:36:00.055Z,5.95
2019-06-01T21:38:30.082Z,4.65
2019-06-01T21:41:00.603Z,5.15
2019-06-01T21:43:35.202Z,4.37
2019-06-01T21:46:02.684Z,5.03
2019-06-01T21:48:32.687Z,5.47
2019-06-01T21:51:02.985Z,4.97
2019-06-01T21:53:33.253Z,5.42
2019-06-01T21:56:03.278Z,5.00
2019-06-01T21:58:33.386Z,4.20
2019-06-01T22:01:03.580Z,3.60
2019-06-01T22:03:33.866Z,4.25
2019-06-01T22:06:04.168Z,4.53
2019-06-01T22:08:34.194Z,4.37
2019-06-01T22:11:04.406Z,5.30
2019-06-01T22:13:34.526Z,5.03
2019-06-01T22:16:04.614Z,5.47
2019-06-01T22:18:34.723Z,5.97
2019-06-01T22:21:04.826Z,4.65
2019-06-01T22:23:34.866Z,4.10
2019-06-01T22:26:05.336Z,4.62
2019-06-01T22:28:35.739Z,4.33
2019-06-01T22:31:05.906Z,4.33
2019-06-01T22:33:35.938Z,4.72
2019-06-01T22:36:06.041Z,4.17
2019-06-01T22:38:36.076Z,4.92
2019-06-01T22:41:06.251Z,4.60
2019-06-01T22:43:45.862Z,4.12
2019-06-01T22:46:07.934Z,4.25
2019-06-01T22:48:38.033Z,4.95
2019-06-01T22:51:08.210Z,4.28
2019-06-01T22:53:38.255Z,4.85
2019-06-01T22:56:08.695Z,4.72
2019-06-01T22:58:38.867Z,5.17
2019-06-01T23:01:08.983Z,4.50
2019-06-01T23:03:39.012Z,4.62
2019-06-01T23:06:09.045Z,4.85
2019-06-01T23:08:39.092Z,5.95
2019-06-01T23:11:09.114Z,4.70
2019-06-01T23:13:52.253Z,4.75
2019-06-01T23:16:10.857Z,5.37
2019-06-01T23:18:41.206Z,5.10
2019-06-01T23:21:11.415Z,5.55
2019-06-01T23:23:41.847Z,4.87
2019-06-01T23:26:12.280Z,5.03
2019-06-01T23:28:42.405Z,5.55
2019-06-01T23:31:12.812Z,5.20
2019-06-01T23:33:42.913Z,5.37
2019-06-01T23:36:13.083Z,4.60
2019-06-01T23:38:43.266Z,4.70
2019-06-01T23:41:13.475Z,4.50
2019-06-01T23:43:43.946Z,4.53
2019-06-01T23:46:14.271Z,4.80
2019-06-01T23:48:44.612Z,5.15
2019-06-01T23:51:15.015Z,4.22
2019-06-01T23:53:45.069Z,4.42
2019-06-01T23:56:15.102Z,3.98
2019-06-01T23:58:45.134Z,3.70
